Time;durP1;ratioP1;P1;durP2;ratioP2;P2;SDS_P1;SDS_P2;PMS_P1;PMS_P2;Temp;Humidity;BMP_temperature;BMP_pressure;BME280_temperature;BME280_humidity;BME280_pressure;Samples;Min_cycle;Max_cycle;Signal;HPM_P1;HPM_P2
2023/01/12 00:02:14;;;;;;;14.00;6.33;;;5.90;99.90;;;;;;5020648;28;20470;-64
2023/01/12 00:04:40;;;;;;;9.83;5.40;;;5.90;99.90;;;;;;5032249;28;20484;-64
2023/01/12 00:07:10;;;;;;;19.20;5.43;;;5.90;99.90;;;;;;5015459;28;20433;-64
2023/01/12 00:09:36;;;;;;;7.87;5.20;;;5.90;99.90;;;;;;5033257;28;20229;-65
2023/01/12 00:12:08;;;;;;;9.33;6.03;;;5.90;99.90;;;;;;5028322;28;20941;-65
2023/01/12 00:14:35;;;;;;;6.43;4.63;;;5.80;99.90;;;;;;5021044;28;20459;-64
2023/01/12 00:17:00;;;;;;;11.73;5.23;;;5.80;99.90;;;;;;5028602;28;20411;-64
2023/01/12 00:19:26;;;;;;;6.73;5.10;;;5.90;99.90;;;;;;5015324;28;20493;-65
2023/01/12 00:22:12;;;;;;;7.77;5.77;;;5.80;99.90;;;;;;5027070;28;20175;-65
2023/01/12 00:24:46;;;;;;;8.03;5.97;;;5.80;99.90;;;;;;5014781;28;20198;-65
2023/01/12 00:27:15;;;;;;;8.73;5.50;;;5.90;99.90;;;;;;5032546;28;20892;-65
2023/01/12 00:29:41;;;;;;;10.17;4.53;;;5.90;99.90;;;;;;5032742;28;20457;-65
2023/01/12 00:32:12;;;;;;;9.67;6.57;;;6.00;99.90;;;;;;5032797;28;20420;-65
2023/01/12 00:34:37;;;;;;;10.10;5.37;;;6.00;99.90;;;;;;5032692;28;20179;-65
2023/01/12 00:37:03;;;;;;;5.60;5.07;;;6.00;99.90;;;;;;5030767;28;20425;-65
2023/01/12 00:39:29;;;;;;;7.33;5.10;;;6.00;99.90;;;;;;5014003;28;20267;-65
2023/01/12 00:47:23;;;;;;;9.83;3.80;;;6.00;99.90;;;;;;5032594;28;20413;-64
2023/01/12 00:49:48;;;;;;;7.50;4.83;;;5.90;99.90;;;;;;5032006;28;20426;-64
2023/01/12 00:52:17;;;;;;;10.03;5.07;;;5.90;99.90;;;;;;5031181;28;20245;-65
2023/01/12 00:54:43;;;;;;;14.30;4.00;;;5.90;99.90;;;;;;5032040;28;20654;-64
2023/01/12 00:57:09;;;;;;;7.63;4.20;;;6.00;99.90;;;;;;5028047;28;20436;-65
2023/01/12 00:59:35;;;;;;;11.53;4.33;;;6.00;99.90;;;;;;5027811;28;20569;-65
2023/01/12 01:02:00;;;;;;;8.23;3.73;;;5.90;99.90;;;;;;5031907;28;20413;-65
2023/01/12 01:04:26;;;;;;;8.03;3.83;;;6.00;99.90;;;;;;5025064;28;20430;-65
2023/01/12 01:06:52;;;;;;;10.13;4.10;;;6.00;99.90;;;;;;5023214;28;20171;-65
2023/01/12 01:09:18;;;;;;;8.47;3.27;;;5.80;99.90;;;;;;5031570;28;20199;-64
2023/01/12 01:11:43;;;;;;;3.93;3.10;;;5.90;99.90;;;;;;5031652;28;20201;-65
2023/01/12 01:14:09;;;;;;;3.67;3.37;;;5.90;99.90;;;;;;5031784;28;20418;-65
2023/01/12 01:16:34;;;;;;;3.67;3.20;;;5.90;99.90;;;;;;5028972;28;20499;-65
2023/01/12 01:19:02;;;;;;;8.50;3.43;;;5.80;99.90;;;;;;5026079;28;20314;-65
2023/01/12 01:21:27;;;;;;;3.77;3.30;;;5.80;99.90;;;;;;5027184;28;20190;-65
2023/01/12 01:23:53;;;;;;;5.13;3.10;;;5.80;99.90;;;;;;5026258;28;20430;-65
2023/01/12 01:26:21;;;;;;;6.33;3.37;;;5.90;99.90;;;;;;5031292;28;20239;-65
2023/01/12 01:28:47;;;;;;;7.80;3.60;;;5.90;99.90;;;;;;5031069;28;20294;-65
2023/01/12 01:31:17;;;;;;;6.33;3.00;;;5.90;99.90;;;;;;5031614;28;20502;-65
2023/01/12 01:33:43;;;;;;;10.00;4.50;;;5.90;99.90;;;;;;5031237;28;20199;-64
2023/01/12 01:36:09;;;;;;;7.63;3.23;;;5.80;99.90;;;;;;5031273;28;20468;-65
2023/01/12 01:38:36;;;;;;;6.50;3.00;;;5.90;99.90;;;;;;5029460;28;20414;-64
2023/01/12 01:41:01;;;;;;;3.93;2.97;;;5.90;99.90;;;;;;5006958;28;20459;-67
2023/01/12 01:43:28;;;;;;;9.30;3.27;;;5.90;99.90;;;;;;5016649;28;20431;-65
2023/01/12 01:45:54;;;;;;;5.40;2.60;;;5.90;99.90;;;;;;5029776;28;20901;-65
2023/01/12 01:48:19;;;;;;;5.73;2.20;;;5.90;99.90;;;;;;5031059;28;20422;-65
2023/01/12 01:50:54;;;;;;;12.17;3.20;;;6.00;99.90;;;;;;5030557;28;20210;-64
2023/01/12 01:53:24;;;;;;;3.30;1.80;;;6.10;99.90;;;;;;5031496;28;20553;-65
2023/01/12 01:55:56;;;;;;;2.47;2.27;;;6.20;99.90;;;;;;5030818;28;20406;-65
2023/01/12 01:58:43;;;;;;;5.53;1.93;;;6.20;99.90;;;;;;5027716;28;20479;-64
2023/01/12 02:01:09;;;;;;;6.63;1.93;;;6.30;99.90;;;;;;5015677;28;20474;-65
2023/01/12 02:03:36;;;;;;;8.50;2.40;;;6.30;99.90;;;;;;5025215;28;20423;-65
2023/01/12 02:06:03;;;;;;;8.80;2.70;;;6.40;99.90;;;;;;5024465;28;20425;-65
2023/01/12 02:08:41;;;;;;;9.93;2.60;;;6.40;99.90;;;;;;5030334;28;20424;-65
2023/01/12 02:16:19;;;;;;;6.93;2.20;;;6.40;99.90;;;;;;5029781;28;20422;-65
2023/01/12 02:16:44;;;;;;;4.10;2.50;;;6.50;99.90;;;;;;5027735;28;20915;-65
2023/01/12 02:19:27;;;;;;;4.50;1.80;;;6.50;99.90;;;;;;5027757;28;20541;-65
2023/01/12 02:22:04;;;;;;;9.50;3.30;;;6.50;99.90;;;;;;5021025;28;20440;-64
2023/01/12 02:24:35;;;;;;;6.57;1.97;;;6.50;99.90;;;;;;5024637;28;20943;-65
2023/01/12 02:27:30;;;;;;;5.50;2.33;;;6.50;99.90;;;;;;5033965;28;20493;-65
2023/01/12 02:30:07;;;;;;;5.83;2.13;;;6.50;99.90;;;;;;5032529;28;20452;-65
2023/01/12 02:32:53;;;;;;;4.70;2.37;;;6.50;99.90;;;;;;5034036;28;20410;-65
2023/01/12 02:35:56;;;;;;;1.73;1.63;;;6.50;99.90;;;;;;5030836;28;20501;-65
2023/01/12 02:38:48;;;;;;;4.70;2.03;;;6.50;99.90;;;;;;5032275;28;20417;-65
2023/01/12 02:44:16;;;;;;;8.60;1.90;;;6.50;99.90;;;;;;5023256;28;20943;-65
2023/01/12 02:46:49;;;;;;;6.10;1.70;;;6.50;99.90;;;;;;5032996;28;20880;-65
2023/01/12 02:49:19;;;;;;;5.70;2.00;;;6.50;99.90;;;;;;5034260;28;20564;-64
2023/01/12 02:51:53;;;;;;;7.47;2.10;;;6.50;99.90;;;;;;5020867;28;20421;-65
2023/01/12 02:54:21;;;;;;;5.57;2.20;;;6.50;99.90;;;;;;5034488;28;20406;-65
2023/01/12 02:56:50;;;;;;;10.93;1.90;;;6.50;99.90;;;;;;5034015;28;20835;-65
2023/01/12 02:59:30;;;;;;;6.30;2.00;;;6.50;99.90;;;;;;5026792;28;20561;-65
2023/01/12 03:02:01;;;;;;;3.27;1.60;;;6.50;99.90;;;;;;5020888;28;20449;-65
2023/01/12 03:04:28;;;;;;;1.90;1.60;;;6.50;99.90;;;;;;5034395;28;20422;-65
2023/01/12 03:06:57;;;;;;;4.57;1.67;;;6.50;99.90;;;;;;5027760;28;20449;-65
2023/01/12 03:09:38;;;;;;;5.67;2.30;;;6.50;99.90;;;;;;5028734;28;20438;-64
2023/01/12 03:12:07;;;;;;;6.50;2.53;;;6.50;99.90;;;;;;5028386;28;20433;-65
2023/01/12 03:14:36;;;;;;;13.07;2.00;;;6.50;99.90;;;;;;5034106;28;20460;-65
2023/01/12 03:17:06;;;;;;;3.93;1.60;;;6.50;99.90;;;;;;5033953;28;20411;-65
2023/01/12 03:19:32;;;;;;;4.30;1.77;;;6.50;99.90;;;;;;5033522;28;20450;-65
2023/01/12 03:22:03;;;;;;;3.13;1.60;;;6.60;99.90;;;;;;5029183;28;20849;-65
2023/01/12 03:24:47;;;;;;;10.13;1.70;;;6.50;99.90;;;;;;5028382;28;20418;-64
2023/01/12 03:27:21;;;;;;;9.43;1.80;;;6.60;99.90;;;;;;5023776;28;20431;-64
2023/01/12 03:29:54;;;;;;;7.50;1.63;;;6.60;99.90;;;;;;5030695;28;20469;-65
2023/01/12 03:32:20;;;;;;;3.70;1.67;;;6.60;99.90;;;;;;5054844;23;20492;-68
2023/01/12 03:34:46;;;;;;;5.93;2.00;;;6.60;99.90;;;;;;5033131;28;20407;-68
2023/01/12 03:37:26;;;;;;;4.30;1.93;;;6.60;99.90;;;;;;5032232;28;20430;-69
2023/01/12 03:40:02;;;;;;;1.83;1.30;;;6.60;99.90;;;;;;5033788;28;20183;-69
2023/01/12 03:42:45;;;;;;;3.90;1.60;;;6.60;99.90;;;;;;5029458;28;20489;-69
2023/01/12 03:45:34;;;;;;;4.20;1.97;;;6.60;99.90;;;;;;5008904;28;20799;-69
2023/01/12 03:48:06;;;;;;;4.03;2.67;;;6.60;99.90;;;;;;5017775;28;20510;-69
2023/01/12 03:50:44;;;;;;;4.30;2.07;;;6.70;99.90;;;;;;5015390;28;20404;-67
2023/01/12 03:53:11;;;;;;;4.63;1.80;;;6.70;99.90;;;;;;5023607;28;20844;-67
2023/01/12 03:55:38;;;;;;;3.30;1.90;;;6.70;99.90;;;;;;5021606;28;20418;-67
2023/01/12 03:58:04;;;;;;;11.10;1.27;;;6.80;99.90;;;;;;5027372;28;20417;-67
2023/01/12 04:00:30;;;;;;;6.67;1.90;;;6.80;99.90;;;;;;5015910;28;20550;-68
2023/01/12 04:03:13;;;;;;;2.30;1.60;;;6.80;99.90;;;;;;5003190;28;20892;-67
2023/01/12 04:05:40;;;;;;;6.23;2.20;;;6.80;99.90;;;;;;5011212;28;20179;-68
2023/01/12 04:08:07;;;;;;;13.23;2.37;;;6.80;99.90;;;;;;5023840;28;20415;-67
2023/01/12 04:10:32;;;;;;;3.10;2.10;;;6.80;99.90;;;;;;5023134;28;20415;-68
2023/01/12 04:12:58;;;;;;;5.77;2.30;;;6.80;99.90;;;;;;5024065;28;20406;-68
2023/01/12 04:15:24;;;;;;;5.57;2.00;;;6.80;99.90;;;;;;5023143;28;20185;-68
2023/01/12 04:17:49;;;;;;;2.17;1.50;;;6.80;99.90;;;;;;5026597;28;20660;-69
2023/01/12 04:20:15;;;;;;;9.23;2.40;;;6.80;99.90;;;;;;5013478;28;20319;-70
2023/01/12 04:22:44;;;;;;;3.03;1.57;;;6.90;99.90;;;;;;5005840;28;20192;-68
2023/01/12 04:25:18;;;;;;;5.13;1.80;;;6.90;99.90;;;;;;4995358;28;20182;-68
2023/01/12 04:28:03;;;;;;;2.47;1.37;;;6.90;99.90;;;;;;5010688;28;20806;-69
2023/01/12 04:30:33;;;;;;;2.87;1.40;;;6.90;99.90;;;;;;5016466;28;20436;-68
2023/01/12 04:32:59;;;;;;;2.10;1.00;;;6.90;99.90;;;;;;5002912;28;20474;-69
2023/01/12 04:35:26;;;;;;;8.33;2.57;;;6.90;99.90;;;;;;5012268;28;20434;-69
2023/01/12 04:37:52;;;;;;;4.83;1.60;;;6.90;99.90;;;;;;5019603;28;20421;-68
2023/01/12 04:40:19;;;;;;;2.00;1.60;;;6.90;99.90;;;;;;5024144;28;20541;-69
2023/01/12 04:43:05;;;;;;;2.20;1.40;;;6.90;99.90;;;;;;5023565;28;21821;-68
2023/01/12 04:45:33;;;;;;;6.57;1.77;;;6.90;99.90;;;;;;5023760;28;20422;-69
2023/01/12 04:48:10;;;;;;;7.87;2.50;;;6.90;99.90;;;;;;5017333;28;20467;-69
2023/01/12 04:50:37;;;;;;;5.50;1.30;;;6.90;99.90;;;;;;5004918;28;20436;-69
2023/01/12 04:53:05;;;;;;;4.43;1.53;;;7.00;99.90;;;;;;5017679;28;20494;-69
2023/01/12 04:55:31;;;;;;;4.13;1.47;;;7.00;99.90;;;;;;5023850;28;20754;-68
2023/01/12 04:57:57;;;;;;;5.17;2.23;;;7.00;99.90;;;;;;5020499;28;20495;-68
2023/01/12 05:00:23;;;;;;;3.90;2.43;;;7.10;99.90;;;;;;5028293;28;20471;-68
2023/01/12 05:02:49;;;;;;;3.57;1.70;;;7.00;99.90;;;;;;5020906;28;20579;-68
2023/01/12 05:05:15;;;;;;;2.87;1.40;;;7.10;99.90;;;;;;5016082;28;20177;-68
2023/01/12 05:10:25;;;;;;;5.10;2.00;;;7.10;99.90;;;;;;5021754;28;20414;-69
2023/01/12 05:12:50;;;;;;;3.63;1.50;;;7.10;99.90;;;;;;5012938;28;20936;-69
2023/01/12 05:15:16;;;;;;;4.90;1.70;;;7.10;99.90;;;;;;5006005;28;20241;-69
2023/01/12 05:17:41;;;;;;;3.90;1.53;;;7.20;99.90;;;;;;5003489;28;20188;-69
2023/01/12 05:20:08;;;;;;;1.47;1.30;;;7.20;99.90;;;;;;5022424;28;20193;-69
2023/01/12 05:22:33;;;;;;;5.20;1.70;;;7.10;99.90;;;;;;5021194;28;20282;-68
2023/01/12 05:24:59;;;;;;;3.80;1.73;;;7.20;99.90;;;;;;5023477;28;20943;-68
2023/01/12 05:27:24;;;;;;;9.10;1.30;;;7.20;99.90;;;;;;5023675;28;20221;-67
2023/01/12 05:29:51;;;;;;;7.50;1.40;;;7.20;99.90;;;;;;5021297;28;20177;-68
2023/01/12 05:32:17;;;;;;;1.77;1.40;;;7.30;99.90;;;;;;5024505;28;20214;-68
2023/01/12 05:34:42;;;;;;;2.73;1.77;;;7.30;99.90;;;;;;5022715;28;20424;-68
2023/01/12 05:37:08;;;;;;;2.43;1.40;;;7.30;99.90;;;;;;5005034;28;20182;-69
2023/01/12 05:39:34;;;;;;;9.27;1.80;;;7.30;99.90;;;;;;5018326;28;20212;-68
2023/01/12 05:44:43;;;;;;;2.17;1.40;;;7.40;99.90;;;;;;5023534;28;20229;-68
2023/01/12 05:47:09;;;;;;;6.53;2.47;;;7.40;99.90;;;;;;5023324;28;20932;-67
2023/01/12 05:49:35;;;;;;;6.40;1.57;;;7.40;99.90;;;;;;5012708;28;20267;-68
2023/01/12 05:52:00;;;;;;;2.70;1.50;;;7.40;99.90;;;;;;5019227;28;20669;-67
2023/01/12 05:54:26;;;;;;;5.80;1.10;;;7.40;99.90;;;;;;5017268;28;20189;-69
2023/01/12 05:56:51;;;;;;;4.40;1.40;;;7.40;99.90;;;;;;5020477;28;20175;-69
2023/01/12 05:59:17;;;;;;;4.73;1.60;;;7.40;99.90;;;;;;5022167;28;20610;-68
2023/01/12 06:01:42;;;;;;;7.50;1.83;;;7.50;99.90;;;;;;5020500;28;20194;-69
2023/01/12 06:04:09;;;;;;;3.17;1.27;;;7.50;99.90;;;;;;5023560;28;20225;-68
2023/01/12 06:06:35;;;;;;;1.73;1.53;;;7.50;99.90;;;;;;5022177;28;20165;-68
2023/01/12 06:09:01;;;;;;;6.63;1.97;;;7.50;99.90;;;;;;5023657;28;20778;-69
2023/01/12 06:14:11;;;;;;;3.70;1.57;;;7.50;99.90;;;;;;5021508;28;20812;-68
2023/01/12 06:16:39;;;;;;;2.33;1.13;;;7.50;99.90;;;;;;5013174;28;20424;-68
2023/01/12 06:19:05;;;;;;;3.27;1.63;;;7.50;99.90;;;;;;5019299;28;20591;-69
2023/01/12 06:21:31;;;;;;;7.50;1.60;;;7.50;99.90;;;;;;5021708;28;20440;-68
2023/01/12 06:23:57;;;;;;;3.43;1.50;;;7.50;99.90;;;;;;5010588;28;20191;-68
2023/01/12 06:26:23;;;;;;;3.50;1.67;;;7.50;99.90;;;;;;4996291;28;20429;-69
2023/01/12 06:28:49;;;;;;;3.93;1.50;;;7.50;99.90;;;;;;5017456;28;20175;-68
2023/01/12 06:31:14;;;;;;;2.03;1.50;;;7.50;99.90;;;;;;5017649;28;20270;-68
2023/01/12 06:33:41;;;;;;;8.60;2.30;;;7.50;99.90;;;;;;5013294;28;20586;-68
2023/01/12 06:36:07;;;;;;;2.60;1.87;;;7.60;99.90;;;;;;5011662;28;20187;-68
2023/01/12 06:38:35;;;;;;;3.20;1.80;;;7.60;99.90;;;;;;5021056;28;20418;-68
2023/01/12 06:41:06;;;;;;;5.53;1.67;;;7.60;99.90;;;;;;5016786;28;20524;-68
2023/01/12 06:43:33;;;;;;;7.07;2.40;;;7.60;99.90;;;;;;5024871;28;20495;-68
2023/01/12 06:45:59;;;;;;;4.60;2.17;;;7.70;99.90;;;;;;5010557;28;20987;-68
2023/01/12 06:48:25;;;;;;;5.57;1.87;;;7.70;99.90;;;;;;5011097;28;20412;-68
2023/01/12 06:50:59;;;;;;;3.30;1.53;;;7.70;99.90;;;;;;5019350;28;20575;-69
2023/01/12 06:53:24;;;;;;;3.60;1.40;;;7.60;99.90;;;;;;5015891;28;20738;-69
2023/01/12 06:55:50;;;;;;;4.27;1.60;;;7.60;99.90;;;;;;5019410;28;20419;-68
2023/01/12 06:58:16;;;;;;;5.63;1.93;;;7.70;99.90;;;;;;5015904;28;20616;-69
2023/01/12 07:00:42;;;;;;;2.70;1.50;;;7.70;99.90;;;;;;5016738;28;20564;-68
2023/01/12 07:03:18;;;;;;;3.33;1.77;;;7.70;99.90;;;;;;5010090;28;20906;-68
2023/01/12 07:05:44;;;;;;;3.53;1.47;;;7.70;99.90;;;;;;5022042;28;20410;-69
2023/01/12 07:08:10;;;;;;;4.10;1.60;;;7.70;99.90;;;;;;5012479;28;20451;-68
2023/01/12 07:10:36;;;;;;;2.00;1.40;;;7.70;99.90;;;;;;5015210;28;20219;-68
2023/01/12 07:13:02;;;;;;;1.90;1.40;;;7.70;99.90;;;;;;5028027;28;20440;-68
2023/01/12 07:15:28;;;;;;;2.13;1.33;;;7.70;99.90;;;;;;5023228;28;20185;-68
2023/01/12 07:17:57;;;;;;;6.70;1.80;;;7.70;99.90;;;;;;5031004;28;20593;-68
2023/01/12 07:20:23;;;;;;;6.53;1.87;;;7.70;99.90;;;;;;5023209;28;20247;-69
2023/01/12 07:22:48;;;;;;;5.17;2.30;;;7.70;99.90;;;;;;5026182;28;20470;-69
2023/01/12 07:25:14;;;;;;;7.23;1.87;;;7.70;99.90;;;;;;5024273;28;20442;-69
2023/01/12 07:27:48;;;;;;;2.03;1.33;;;7.70;99.90;;;;;;5019381;28;20263;-68
2023/01/12 07:30:14;;;;;;;4.20;2.10;;;7.70;99.90;;;;;;5030641;28;20254;-67
2023/01/12 07:32:39;;;;;;;6.00;2.00;;;7.70;99.90;;;;;;5023063;28;20939;-68
2023/01/12 07:35:05;;;;;;;3.27;1.63;;;7.80;99.90;;;;;;5024847;28;20645;-68
2023/01/12 07:37:31;;;;;;;6.57;2.37;;;7.80;99.90;;;;;;5017016;28;20179;-69
2023/01/12 07:39:56;;;;;;;2.00;1.57;;;7.80;99.90;;;;;;5021870;28;20782;-69
2023/01/12 07:42:22;;;;;;;4.93;3.50;;;7.80;99.90;;;;;;5024181;28;20193;-68
2023/01/12 07:44:47;;;;;;;11.07;2.33;;;7.90;99.90;;;;;;5020354;28;20179;-68
2023/01/12 07:47:13;;;;;;;4.33;1.83;;;7.90;99.90;;;;;;4995031;28;20170;-68
2023/01/12 07:49:39;;;;;;;10.33;2.27;;;7.90;99.90;;;;;;5018852;28;20176;-68
2023/01/12 07:52:04;;;;;;;6.37;2.00;;;8.00;99.90;;;;;;5024981;28;20553;-68
2023/01/12 07:54:32;;;;;;;2.03;1.40;;;8.00;99.90;;;;;;5008154;28;20232;-69
2023/01/12 07:56:58;;;;;;;3.20;1.57;;;8.10;99.90;;;;;;5001129;28;20182;-69
2023/01/12 07:59:23;;;;;;;7.00;1.53;;;8.10;99.90;;;;;;5003720;28;23243;-69
2023/01/12 08:01:49;;;;;;;4.53;1.80;;;8.10;99.90;;;;;;4998202;28;20749;-69
2023/01/12 08:04:14;;;;;;;5.43;1.53;;;8.10;99.90;;;;;;5001204;28;20182;-68
2023/01/12 08:06:41;;;;;;;3.33;1.60;;;8.10;99.90;;;;;;5005401;28;20183;-68
2023/01/12 08:09:06;;;;;;;3.60;1.80;;;8.20;99.90;;;;;;5003946;28;20263;-68
2023/01/12 08:11:32;;;;;;;4.17;2.17;;;8.20;99.90;;;;;;5002716;28;20456;-69
2023/01/12 08:13:58;;;;;;;5.20;1.83;;;8.20;99.90;;;;;;5001915;28;20206;-69
2023/01/12 08:16:36;;;;;;;5.90;1.63;;;8.20;99.90;;;;;;4998691;28;20174;-69
2023/01/12 08:19:13;;;;;;;6.63;1.90;;;8.20;99.90;;;;;;5000413;28;20454;-68
2023/01/12 08:21:44;;;;;;;4.47;2.73;;;8.30;99.90;;;;;;4996049;28;20579;-68
2023/01/12 08:24:20;;;;;;;3.60;2.10;;;8.30;99.90;;;;;;4999021;28;20959;-69
2023/01/12 08:26:49;;;;;;;5.87;1.33;;;8.30;99.90;;;;;;5008292;28;20473;-69
2023/01/12 08:29:30;;;;;;;3.53;1.60;;;8.30;99.90;;;;;;5002662;28;20449;-69
2023/01/12 08:32:04;;;;;;;3.23;1.40;;;8.30;99.90;;;;;;4999414;28;20513;-69
2023/01/12 08:34:30;;;;;;;6.83;1.37;;;8.40;99.90;;;;;;5001656;28;20487;-68
2023/01/12 08:36:59;;;;;;;4.20;1.80;;;8.40;99.90;;;;;;4993851;28;20444;-69
2023/01/12 08:39:25;;;;;;;3.60;1.50;;;8.40;99.90;;;;;;5002832;28;20484;-69
2023/01/12 08:41:50;;;;;;;7.43;2.17;;;8.40;99.90;;;;;;4998609;28;20543;-69
2023/01/12 08:44:16;;;;;;;4.17;1.57;;;8.40;99.90;;;;;;4998610;28;20179;-68
2023/01/12 08:46:47;;;;;;;6.43;1.70;;;8.40;99.90;;;;;;5004923;28;20179;-69
2023/01/12 08:49:15;;;;;;;7.40;2.03;;;8.50;99.90;;;;;;4992826;28;20182;-68
2023/01/12 08:51:41;;;;;;;3.63;1.83;;;8.60;99.90;;;;;;5006596;28;20542;-68
2023/01/12 08:54:09;;;;;;;5.23;1.90;;;8.50;99.90;;;;;;5006136;28;20529;-69
2023/01/12 08:56:34;;;;;;;2.10;1.90;;;8.50;99.90;;;;;;5002035;28;20234;-68
2023/01/12 08:59:01;;;;;;;3.30;1.60;;;8.60;99.90;;;;;;5014632;28;20834;-69
2023/01/12 09:01:27;;;;;;;2.43;1.90;;;8.60;99.90;;;;;;5023750;28;20199;-68
2023/01/12 09:03:54;;;;;;;5.17;1.83;;;8.70;99.90;;;;;;5012230;28;20497;-69
2023/01/12 09:06:22;;;;;;;5.40;1.87;;;8.70;99.90;;;;;;5000652;28;20186;-68
2023/01/12 09:08:53;;;;;;;3.07;1.60;;;8.80;99.90;;;;;;5004259;28;20793;-68
2023/01/12 09:11:19;;;;;;;4.40;1.43;;;8.90;99.90;;;;;;4998610;28;20868;-69
2023/01/12 09:13:45;;;;;;;3.07;1.80;;;8.90;99.90;;;;;;5003912;28;20459;-68
2023/01/12 09:16:14;;;;;;;3.63;3.33;;;8.90;99.90;;;;;;5000896;28;20436;-68
2023/01/12 09:18:41;;;;;;;5.03;1.70;;;8.90;99.90;;;;;;4997919;28;20654;-68
2023/01/12 09:21:19;;;;;;;4.40;1.60;;;8.90;99.90;;;;;;5005418;28;20559;-68
2023/01/12 09:23:45;;;;;;;3.37;1.43;;;9.00;99.90;;;;;;4993795;28;20429;-68
2023/01/12 09:26:13;;;;;;;2.60;1.50;;;9.00;99.90;;;;;;5007217;28;20854;-69
2023/01/12 09:28:40;;;;;;;4.97;1.70;;;9.00;99.90;;;;;;5000566;28;20551;-68
2023/01/12 09:31:08;;;;;;;1.73;1.50;;;9.10;99.90;;;;;;4994576;28;20555;-69
2023/01/12 09:33:36;;;;;;;2.10;1.20;;;9.10;99.90;;;;;;5025778;23;20921;-64
2023/01/12 09:36:05;;;;;;;4.20;1.43;;;9.10;99.90;;;;;;5020817;28;20443;-64
2023/01/12 09:38:33;;;;;;;5.00;2.00;;;9.10;99.90;;;;;;5014347;28;20437;-64
2023/01/12 09:41:02;;;;;;;3.60;1.67;;;9.20;99.90;;;;;;5016675;28;20470;-64
2023/01/12 09:49:24;;;;;;;3.07;1.87;;;9.30;99.90;;;;;;4995030;28;20431;-64
2023/01/12 09:51:57;;;;;;;3.07;1.30;;;9.40;99.90;;;;;;5017942;28;20621;-64
2023/01/12 09:54:23;;;;;;;3.27;1.50;;;9.30;99.90;;;;;;5019496;28;20451;-63
2023/01/12 09:57:29;;;;;;;1.70;1.20;;;9.30;99.90;;;;;;5017695;28;20505;-65
2023/01/12 10:00:14;;;;;;;2.93;1.57;;;9.40;99.90;;;;;;5017200;28;20556;-64
2023/01/12 10:02:45;;;;;;;2.23;1.10;;;9.50;99.90;;;;;;5016956;28;20433;-64
2023/01/12 10:05:19;;;;;;;2.90;1.20;;;9.50;99.90;;;;;;5016194;28;20808;-64
2023/01/12 10:07:47;;;;;;;2.90;1.13;;;9.60;99.90;;;;;;5016406;28;20435;-64
2023/01/12 10:10:14;;;;;;;4.37;1.83;;;9.60;99.90;;;;;;5014590;28;20434;-64
2023/01/12 10:12:50;;;;;;;4.83;1.30;;;9.60;99.90;;;;;;5017261;28;20802;-64
2023/01/12 10:15:34;;;;;;;7.10;1.80;;;9.70;99.90;;;;;;5018392;28;20438;-65
2023/01/12 10:18:21;;;;;;;2.07;1.30;;;9.70;99.90;;;;;;5017813;28;20951;-65
2023/01/12 10:20:47;;;;;;;2.20;1.73;;;9.80;99.90;;;;;;5020261;28;20868;-64
2023/01/12 10:23:15;;;;;;;7.60;1.50;;;9.80;99.90;;;;;;5016744;28;20500;-65
2023/01/12 10:25:47;;;;;;;2.00;1.20;;;9.80;99.90;;;;;;5014341;28;20269;-65
2023/01/12 10:28:29;;;;;;;2.50;1.40;;;9.80;99.90;;;;;;5018453;28;20524;-65
2023/01/12 10:30:56;;;;;;;2.83;1.67;;;9.90;99.90;;;;;;5016260;28;20420;-65
2023/01/12 10:33:23;;;;;;;4.50;2.23;;;9.90;99.90;;;;;;5017934;28;20462;-67
2023/01/12 10:36:01;;;;;;;6.57;1.70;;;9.90;99.90;;;;;;5014902;28;20783;-65
2023/01/12 10:38:27;;;;;;;5.20;1.80;;;10.00;99.90;;;;;;5013505;28;21179;-64
2023/01/12 10:41:20;;;;;;;2.00;1.20;;;9.90;99.90;;;;;;5017859;28;20449;-65
2023/01/12 10:44:05;;;;;;;2.93;1.47;;;10.00;99.90;;;;;;5020867;28;20278;-64
2023/01/12 10:46:33;;;;;;;5.87;1.73;;;10.00;99.90;;;;;;5030780;28;20410;-64
2023/01/12 10:49:17;;;;;;;2.13;1.20;;;9.90;99.90;;;;;;5033503;28;20977;-65
2023/01/12 10:51:51;;;;;;;2.90;2.17;;;9.90;99.90;;;;;;5034782;28;20420;-65
2023/01/12 10:54:19;;;;;;;3.97;1.63;;;9.90;99.90;;;;;;5035556;28;20436;-65
2023/01/12 10:56:58;;;;;;;3.00;1.20;;;9.80;99.90;;;;;;5034519;28;20964;-65
2023/01/12 10:59:30;;;;;;;3.63;1.57;;;9.80;99.90;;;;;;5033896;28;20912;-65
2023/01/12 11:02:08;;;;;;;7.67;1.60;;;9.90;99.90;;;;;;5025070;28;20414;-65
2023/01/12 11:04:45;;;;;;;2.97;1.27;;;9.80;99.90;;;;;;5031883;28;20437;-65
2023/01/12 11:07:13;;;;;;;6.73;1.70;;;9.70;99.90;;;;;;5032728;28;20555;-65
2023/01/12 11:09:41;;;;;;;4.10;1.60;;;9.60;99.90;;;;;;5033972;28;20402;-65
2023/01/12 11:12:30;;;;;;;7.50;1.90;;;9.60;99.90;;;;;;5034209;28;20511;-64
2023/01/12 11:14:59;;;;;;;2.30;1.50;;;9.50;99.90;;;;;;5028486;28;20426;-65
2023/01/12 11:17:37;;;;;;;4.70;1.93;;;9.50;99.90;;;;;;5034017;28;20410;-65
2023/01/12 11:20:12;;;;;;;4.50;1.40;;;9.40;99.90;;;;;;5027294;28;20495;-64
2023/01/12 11:22:40;;;;;;;3.37;1.60;;;9.40;99.90;;;;;;5033728;28;20750;-65
2023/01/12 11:25:12;;;;;;;6.17;2.23;;;9.40;99.90;;;;;;5033338;28;20419;-65
2023/01/12 11:27:53;;;;;;;2.83;1.80;;;9.30;99.90;;;;;;5030117;28;20404;-65
2023/01/12 11:30:33;;;;;;;6.80;1.67;;;9.30;99.90;;;;;;5015833;28;20419;-65
2023/01/12 11:33:10;;;;;;;2.60;1.77;;;9.20;99.90;;;;;;5028955;28;20444;-64
2023/01/12 11:35:53;;;;;;;3.50;1.47;;;9.20;99.90;;;;;;5033698;28;20456;-65
2023/01/12 11:38:41;;;;;;;6.20;1.60;;;9.10;99.90;;;;;;5031377;28;20467;-64
2023/01/12 11:41:18;;;;;;;3.00;1.57;;;9.20;99.90;;;;;;5027266;28;20543;-64
2023/01/12 11:43:54;;;;;;;3.23;1.50;;;9.10;99.90;;;;;;5033389;28;20426;-69
2023/01/12 11:47:02;;;;;;;2.13;1.40;;;9.10;99.90;;;;;;5042308;28;20429;-65
2023/01/12 11:49:27;;;;;;;2.90;1.40;;;9.10;99.90;;;;;;5005674;28;20922;-65
2023/01/12 11:51:55;;;;;;;2.13;1.27;;;9.10;99.90;;;;;;5032758;28;20536;-65
2023/01/12 11:54:22;;;;;;;4.20;3.43;;;9.10;99.90;;;;;;5034818;28;20673;-65
2023/01/12 11:57:00;;;;;;;3.43;2.20;;;9.20;99.90;;;;;;5033211;28;20414;-64
2023/01/12 11:59:44;;;;;;;7.80;1.83;;;9.20;99.90;;;;;;5043610;28;20899;-64
2023/01/12 12:02:28;;;;;;;3.47;1.83;;;9.20;99.90;;;;;;5033447;28;20481;-64
2023/01/12 12:05:05;;;;;;;5.10;2.40;;;9.30;99.90;;;;;;5030722;28;20432;-64
2023/01/12 12:08:14;;;;;;;3.30;2.03;;;9.30;99.90;;;;;;5033052;28;20822;-64
2023/01/12 12:10:58;;;;;;;3.07;2.33;;;9.40;99.90;;;;;;5031295;28;20411;-64
2023/01/12 12:13:47;;;;;;;2.70;1.17;;;9.40;99.90;;;;;;5033258;28;20522;-64
2023/01/12 12:16:43;;;;;;;2.47;1.00;;;9.40;99.90;;;;;;5021697;28;21016;-63
2023/01/12 12:19:40;;;;;;;2.77;1.20;;;9.40;99.90;;;;;;5032719;28;20419;-63
2023/01/12 12:22:21;;;;;;;1.70;1.30;;;9.50;99.90;;;;;;5027231;28;20223;-64
2023/01/12 12:24:59;;;;;;;3.90;1.20;;;9.50;99.90;;;;;;5032606;28;20440;-65
2023/01/12 12:27:27;;;;;;;3.23;0.87;;;9.50;99.90;;;;;;5032561;28;20420;-65
2023/01/12 12:30:21;;;;;;;2.43;1.13;;;9.60;99.90;;;;;;5024932;28;20415;-65
2023/01/12 12:32:59;;;;;;;1.53;1.27;;;9.60;99.90;;;;;;5032857;28;20538;-65
2023/01/12 12:35:58;;;;;;;1.00;1.00;;;9.70;99.90;;;;;;5032673;28;20508;-64
2023/01/12 12:39:01;;;;;;;5.17;1.37;;;9.70;99.90;;;;;;5029301;28;20412;-64
2023/01/12 12:47:44;;;;;;;1.70;1.00;;;9.80;99.90;;;;;;5030132;28;20942;-64
2023/01/12 12:50:33;;;;;;;4.07;1.80;;;9.80;99.90;;;;;;5032267;28;20419;-64
2023/01/12 12:53:16;;;;;;;1.43;0.80;;;9.80;99.90;;;;;;5027085;28;20422;-65
2023/01/12 12:55:43;;;;;;;2.50;1.00;;;9.80;99.90;;;;;;5015600;28;20444;-64
2023/01/12 12:58:21;;;;;;;1.03;0.80;;;9.80;99.90;;;;;;5031921;28;20443;-65
2023/01/12 13:00:51;;;;;;;1.83;1.00;;;9.90;99.90;;;;;;5032027;28;20518;-64
2023/01/12 13:03:56;;;;;;;2.00;1.13;;;9.90;99.90;;;;;;5031635;28;20478;-64
2023/01/12 13:06:40;;;;;;;1.93;0.80;;;9.90;99.90;;;;;;5019452;28;20966;-64
2023/01/12 13:09:13;;;;;;;2.03;1.00;;;10.00;99.90;;;;;;5025714;28;20464;-64
2023/01/12 13:11:57;;;;;;;1.50;0.90;;;10.00;99.90;;;;;;5031921;28;20768;-64
2023/01/12 13:14:33;;;;;;;1.90;0.90;;;10.00;99.90;;;;;;5032095;28;20427;-65
2023/01/12 13:17:18;;;;;;;1.00;0.83;;;10.00;99.90;;;;;;5025004;28;20414;-65
2023/01/12 13:19:59;;;;;;;0.90;0.80;;;10.00;99.90;;;;;;5032086;28;20846;-64
2023/01/12 13:22:42;;;;;;;2.07;0.77;;;10.00;99.90;;;;;;5030579;28;20417;-65
2023/01/12 13:25:19;;;;;;;1.80;1.17;;;10.00;99.90;;;;;;5025940;28;20406;-65
2023/01/12 13:28:00;;;;;;;1.60;1.17;;;10.00;99.90;;;;;;5031412;28;20417;-65
2023/01/12 13:30:25;;;;;;;1.40;0.90;;;10.00;99.90;;;;;;5031461;28;20405;-65
2023/01/12 13:33:10;;;;;;;2.63;1.13;;;10.00;99.90;;;;;;5028222;28;20419;-71
2023/01/12 13:35:37;;;;;;;1.90;0.90;;;10.00;99.90;;;;;;5029442;28;20261;-67
2023/01/12 13:38:15;;;;;;;1.87;1.00;;;10.00;99.90;;;;;;5031343;28;20410;-64
2023/01/12 13:40:41;;;;;;;1.87;0.80;;;10.00;99.90;;;;;;5031406;28;20457;-64
2023/01/12 13:43:25;;;;;;;1.57;0.90;;;10.00;99.90;;;;;;5031412;28;20513;-64
2023/01/12 13:46:04;;;;;;;1.37;0.80;;;10.10;99.90;;;;;;5023427;28;20404;-63
2023/01/12 13:48:32;;;;;;;0.90;0.87;;;10.00;99.90;;;;;;5031070;28;20402;-65
2023/01/12 13:51:03;;;;;;;1.10;0.87;;;10.00;99.90;;;;;;5023875;28;20417;-64